Time;durP1;ratioP1;P1;durP2;ratioP2;P2;SDS_P1;SDS_P2;PMS_P1;PMS_P2;Temp;Humidity;BMP_temperature;BMP_pressure;BME280_temperature;BME280_humidity;BME280_pressure;Samples;Min_cycle;Max_cycle;Signal;HPM_P1;HPM_P2
2021/12/22 04:33:06;;;;;;;22.97;13.80;;;;;;;-0.23;54.25;99690.53;7093683;23;20244;-81
2021/12/22 04:36:28;;;;;;;18.20;12.47;;;;;;;-0.62;54.27;99679.41;6898236;28;20631;-81
2021/12/22 04:39:49;;;;;;;22.23;13.83;;;;;;;-0.84;54.90;99696.03;6899036;28;20208;-81
2021/12/22 04:43:11;;;;;;;24.37;14.60;;;;;;;-0.59;55.07;99700.38;6875350;28;20267;-81
2021/12/22 04:46:33;;;;;;;20.63;13.77;;;;;;;-0.95;55.18;99674.81;6872634;28;20225;-81
2021/12/22 04:49:56;;;;;;;21.27;14.17;;;;;;;-1.03;55.41;99681.63;6873461;28;20680;-83
2021/12/22 04:53:22;;;;;;;21.27;13.77;;;;;;;-0.80;55.46;99662.25;6873070;28;20920;-82
2021/12/22 04:56:43;;;;;;;20.10;13.23;;;;;;;-0.56;54.28;99673.66;6871913;28;20746;-81
2021/12/22 05:00:08;;;;;;;20.60;14.07;;;;;;;-0.34;53.36;99685.19;6872388;28;20285;-81
2021/12/22 05:03:30;;;;;;;18.77;13.33;;;;;;;-0.73;53.67;99650.28;6872846;28;20245;-81
2021/12/22 05:06:52;;;;;;;19.20;13.03;;;;;;;-0.91;54.22;99694.81;6848607;28;20205;-81
2021/12/22 05:10:15;;;;;;;24.30;15.83;;;;;;;-1.24;55.31;99656.72;6859125;28;20228;-81
2021/12/22 05:13:38;;;;;;;25.60;15.10;;;;;;;-0.84;55.26;99676.69;6873980;28;20206;-81
2021/12/22 05:17:03;;;;;;;22.03;14.77;;;;;;;-0.66;54.58;99660.25;6857538;28;20206;-81
2021/12/22 05:20:25;;;;;;;21.90;14.30;;;;;;;-0.98;54.68;99659.16;6855888;28;20213;-81
2021/12/22 05:23:48;;;;;;;21.83;15.20;;;;;;;-0.89;54.96;99668.25;6857193;28;20226;-81
2021/12/22 05:27:11;;;;;;;26.00;15.50;;;;;;;-1.14;55.45;99628.66;6864466;28;20272;-81
2021/12/22 05:30:33;;;;;;;25.03;16.20;;;;;;;-0.72;54.88;99668.66;6847524;28;20714;-81
2021/12/22 05:33:55;;;;;;;23.60;14.97;;;;;;;-1.10;55.01;99668.00;6859365;28;20212;-80
2021/12/22 05:37:17;;;;;;;24.03;17.00;;;;;;;-1.11;55.07;99646.94;6875150;28;20212;-81
2021/12/22 05:40:40;;;;;;;22.40;14.90;;;;;;;-0.45;54.80;99686.94;6874912;28;20771;-81
2021/12/22 05:44:01;;;;;;;26.27;15.33;;;;;;;-0.50;54.66;99694.38;6875218;28;20256;-81
2021/12/22 05:47:23;;;;;;;21.00;15.13;;;;;;;-0.95;55.57;99692.50;6870627;28;20209;-81
2021/12/22 05:50:47;;;;;;;25.90;15.40;;;;;;;-1.02;56.21;99693.91;6848574;28;20231;-81
2021/12/22 05:54:08;;;;;;;24.63;15.60;;;;;;;-0.88;56.78;99670.78;6863945;28;20651;-81
2021/12/22 05:57:31;;;;;;;22.83;15.70;;;;;;;-0.38;54.92;99694.31;6844576;29;20213;-81
2021/12/22 06:00:53;;;;;;;26.93;16.20;;;;;;;-0.77;55.26;99705.22;6845485;28;20250;-81
2021/12/22 06:04:14;;;;;;;21.77;15.47;;;;;;;-1.33;55.82;99630.94;6868578;28;20249;-81
2021/12/22 06:07:36;;;;;;;26.83;17.10;;;;;;;-0.67;54.84;99649.81;6847678;28;20206;-82
2021/12/22 06:10:57;;;;;;;27.23;15.50;;;;;;;-0.44;54.28;99709.81;6862495;28;20217;-81
2021/12/22 06:14:20;;;;;;;21.00;13.97;;;;;;;-0.60;53.58;99702.16;6871437;28;20270;-81
2021/12/22 06:17:42;;;;;;;22.60;15.30;;;;;;;-0.46;54.10;99715.25;6861689;28;20212;-81
2021/12/22 06:21:04;;;;;;;21.73;13.70;;;;;;;-0.55;53.21;99715.09;6845095;29;20636;-81
2021/12/22 06:24:25;;;;;;;19.47;13.33;;;;;;;-1.02;53.61;99675.41;6869977;28;20225;-81
2021/12/22 06:27:47;;;;;;;23.77;15.90;;;;;;;-0.64;53.21;99713.97;6861098;28;20283;-81
2021/12/22 06:31:10;;;;;;;24.87;15.87;;;;;;;-0.65;53.38;99717.56;6849797;28;20329;-81
2021/12/22 06:34:31;;;;;;;25.00;15.80;;;;;;;-0.58;53.61;99705.56;6851038;28;20277;-81
2021/12/22 06:37:53;;;;;;;24.67;15.10;;;;;;;-0.81;53.29;99687.91;6850608;28;20404;-81
2021/12/22 06:41:15;;;;;;;24.37;16.13;;;;;;;-0.65;53.17;99708.78;6855289;28;20228;-80
2021/12/22 06:44:36;;;;;;;26.20;16.63;;;;;;;-1.02;54.03;99655.03;6852619;28;20591;-80
2021/12/22 06:47:59;;;;;;;27.47;16.07;;;;;;;-1.12;54.05;99700.81;6845400;28;20205;-81
2021/12/22 06:51:21;;;;;;;27.27;16.73;;;;;;;-0.84;54.69;99713.75;6866194;28;20244;-82
2021/12/22 06:54:43;;;;;;;30.53;18.67;;;;;;;-0.82;53.45;99677.41;6846586;28;20213;-78
2021/12/22 06:58:05;;;;;;;32.80;17.50;;;;;;;-0.76;53.98;99693.69;6850712;28;20216;-78
2021/12/22 07:01:26;;;;;;;24.70;15.60;;;;;;;-0.67;53.65;99686.88;6869170;28;20243;-77
2021/12/22 07:04:49;;;;;;;25.10;16.00;;;;;;;-0.93;54.02;99702.03;6853808;28;20226;-77
2021/12/22 07:08:11;;;;;;;22.70;14.63;;;;;;;-1.50;54.87;99692.09;6866006;28;20208;-79
2021/12/22 07:11:33;;;;;;;30.10;17.70;;;;;;;-1.23;54.98;99698.09;6859221;28;20229;-79
2021/12/22 07:14:55;;;;;;;26.70;17.77;;;;;;;-1.50;55.09;99677.09;6867283;28;20268;-80
2021/12/22 07:18:16;;;;;;;29.57;18.27;;;;;;;-1.15;55.48;99683.38;6865347;28;20551;-80
2021/12/22 07:21:39;;;;;;;34.40;20.07;;;;;;;-0.76;55.31;99712.22;6863813;28;20226;-80
2021/12/22 07:25:01;;;;;;;28.77;16.90;;;;;;;-0.96;54.72;99709.34;6859768;28;20227;-79
2021/12/22 07:28:22;;;;;;;35.10;17.97;;;;;;;-1.14;54.71;99700.91;6869733;28;20209;-79
2021/12/22 07:31:45;;;;;;;30.33;16.73;;;;;;;-0.95;55.38;99697.81;6870176;28;20240;-79
2021/12/22 07:35:09;;;;;;;34.87;16.43;;;;;;;-1.02;54.77;99700.03;6868148;28;20209;-79
2021/12/22 07:38:35;;;;;;;28.40;17.00;;;;;;;-1.06;55.30;99709.13;6843956;28;20205;-79
2021/12/22 07:41:57;;;;;;;26.87;15.80;;;;;;;-1.32;56.11;99719.91;6868818;28;20224;-80
2021/12/22 07:45:18;;;;;;;32.60;17.83;;;;;;;-1.20;55.70;99696.06;6850598;28;20228;-80
2021/12/22 07:48:40;;;;;;;24.47;16.33;;;;;;;-1.05;55.59;99716.16;6856904;28;20205;-79
2021/12/22 07:52:02;;;;;;;31.20;18.77;;;;;;;-0.95;55.76;99742.78;6852377;28;20228;-79
2021/12/22 07:55:25;;;;;;;30.70;17.97;;;;;;;-0.70;55.29;99751.50;6860450;28;20216;-77
2021/12/22 07:58:46;;;;;;;29.43;18.40;;;;;;;-0.58;55.71;99742.66;6852376;28;20589;-79
2021/12/22 08:02:09;;;;;;;26.30;16.03;;;;;;;-0.27;54.08;99742.88;6859661;28;20232;-79
2021/12/22 08:05:31;;;;;;;27.30;15.03;;;;;;;-0.37;53.21;99750.81;6855687;28;20291;-79
2021/12/22 08:08:53;;;;;;;24.20;15.17;;;;;;;-0.28;53.63;99742.16;6855789;28;20260;-80
2021/12/22 08:12:16;;;;;;;24.83;15.37;;;;;;;-0.21;53.33;99749.53;6861611;28;20236;-80
2021/12/22 08:15:37;;;;;;;25.43;17.67;;;;;;;-0.46;53.62;99736.44;6861081;28;20217;-80
2021/12/22 08:18:59;;;;;;;32.20;18.73;;;;;;;-0.09;53.64;99732.72;6872880;28;20213;-79
2021/12/22 08:22:21;;;;;;;24.37;16.87;;;;;;;-0.79;53.34;99659.50;6868916;28;20221;-79
2021/12/22 08:25:43;;;;;;;28.90;18.17;;;;;;;-0.62;54.40;99712.03;6865194;28;20244;-79
2021/12/22 08:29:06;;;;;;;25.17;16.33;;;;;;;-0.40;54.50;99713.94;6865235;28;20200;-80
2021/12/22 08:32:27;;;;;;;26.93;16.97;;;;;;;-0.05;54.59;99742.97;6867399;28;20233;-80
2021/12/22 08:39:29;;;;;;;35.63;21.23;;;;;;;0.01;54.52;99742.50;6853787;28;20204;-80
2021/12/22 08:42:52;;;;;;;40.37;24.13;;;;;;;0.50;55.19;99721.88;6866041;28;20271;-79
2021/12/22 08:46:15;;;;;;;27.20;18.67;;;;;;;2.38;50.22;99701.66;6852780;28;20297;-80
2021/12/22 08:49:37;;;;;;;23.63;16.63;;;;;;;3.34;47.47;99719.66;6862571;28;20205;-80
2021/12/22 08:52:59;;;;;;;23.00;15.93;;;;;;;2.71;47.46;99700.53;6852291;28;20229;-80
2021/12/22 08:56:20;;;;;;;25.93;18.10;;;;;;;2.42;49.05;99727.00;6868995;28;20372;-80
2021/12/22 08:59:42;;;;;;;28.80;19.23;;;;;;;2.26;49.90;99701.84;6869952;28;20216;-81
2021/12/22 09:03:05;;;;;;;28.87;19.43;;;;;;;1.79;50.96;99675.78;6858788;28;20233;-81
2021/12/22 09:06:27;;;;;;;27.43;18.67;;;;;;;2.12;50.55;99700.34;6848750;28;20229;-80
2021/12/22 09:09:49;;;;;;;31.30;18.63;;;;;;;1.84;51.30;99701.00;6862355;28;20708;-80
2021/12/22 09:13:12;;;;;;;29.10;18.33;;;;;;;1.82;52.08;99713.59;6880561;28;20221;-80
2021/12/22 09:16:34;;;;;;;30.07;19.67;;;;;;;1.54;53.09;99679.63;6879607;28;20211;-80
2021/12/22 09:19:57;;;;;;;32.90;21.33;;;;;;;1.93;53.37;99712.69;6879905;28;20212;-80
2021/12/22 09:23:19;;;;;;;31.37;20.03;;;;;;;2.07;52.86;99699.91;6878688;28;20224;-80
2021/12/22 09:26:40;;;;;;;27.87;18.87;;;;;;;2.16;52.94;99699.13;6875496;28;20236;-80
2021/12/22 09:30:02;;;;;;;30.07;19.80;;;;;;;2.19;52.25;99652.81;6873749;28;20661;-80
2021/12/22 09:33:25;;;;;;;34.77;20.90;;;;;;;2.61;52.82;99695.16;6851724;28;20777;-80
2021/12/22 09:36:48;;;;;;;30.60;19.97;;;;;;;3.35;51.93;99688.50;6849506;28;20232;-80
2021/12/22 09:40:10;;;;;;;30.03;20.80;;;;;;;3.09;51.22;99703.31;6875131;28;20213;-81
2021/12/22 09:43:32;;;;;;;34.27;19.63;;;;;;;3.23;52.00;99687.78;6875713;28;20550;-80
2021/12/22 09:46:53;;;;;;;30.30;20.30;;;;;;;3.01;52.38;99671.19;6875159;28;20226;-80
2021/12/22 09:50:24;;;;;;;28.17;19.67;;;;;;;3.84;51.60;99683.88;6876013;28;20218;-79
2021/12/22 09:53:49;;;;;;;27.87;19.90;;;;;;;4.29;50.85;99650.25;6869673;28;20235;-81
2021/12/22 09:57:11;;;;;;;26.20;19.03;;;;;;;4.16;50.19;99647.03;6852653;28;20213;-80
2021/12/22 10:00:35;;;;;;;29.03;18.80;;;;;;;4.00;49.58;99635.28;6876181;28;20224;-80
2021/12/22 10:03:59;;;;;;;34.50;21.33;;;;;;;4.26;50.08;99652.34;6870851;28;20207;-78
2021/12/22 10:07:27;;;;;;;35.33;21.10;;;;;;;4.42;49.80;99674.78;6872663;28;20229;-79
2021/12/22 10:10:52;;;;;;;32.47;21.07;;;;;;;4.08;50.26;99641.56;6873807;28;20700;-79
2021/12/22 10:14:22;;;;;;;26.93;20.20;;;;;;;3.69;50.11;99663.97;6872809;28;20221;-79
2021/12/22 10:17:46;;;;;;;31.33;22.23;;;;;;;4.23;51.04;99665.97;6854807;28;20209;-79
2021/12/22 10:21:12;;;;;;;43.97;26.73;;;;;;;4.54;49.94;99654.91;6847559;28;20226;-79
2021/12/22 10:24:37;;;;;;;40.70;25.67;;;;;;;4.14;50.41;99622.31;6846151;28;20720;-79
2021/12/22 10:28:02;;;;;;;28.90;21.50;;;;;;;4.68;49.88;99635.75;6874373;28;20201;-79
2021/12/22 10:31:33;;;;;;;30.50;21.20;;;;;;;4.27;48.83;99486.75;6892879;23;20238;-91
2021/12/22 10:35:00;;;;;;;26.63;18.50;;;;;;;5.43;47.35;99531.94;6888577;28;20216;-89
2021/12/22 10:38:25;;;;;;;31.00;20.97;;;;;;;4.87;46.85;99501.22;6875948;28;20220;-91
2021/12/22 10:42:02;;;;;;;26.07;18.50;;;;;;;4.72;47.96;99484.88;6876435;28;20229;-91
2021/12/22 10:45:31;;;;;;;31.23;22.27;;;;;;;5.41;47.69;99560.69;6874102;28;20239;-89
2021/12/22 10:49:17;;;;;;;27.70;19.17;;;;;;;6.00;47.61;99637.59;6875278;28;20213;-90
2021/12/22 10:52:53;;;;;;;26.80;18.57;;;;;;;5.04;47.42;99461.16;6874992;28;20292;-90
2021/12/22 10:56:54;;;;;;;29.13;18.13;;;;;;;6.21;46.88;99555.09;6872997;28;20205;-90
2021/12/22 11:00:21;;;;;;;22.43;17.40;;;;;;;5.79;47.27;99551.47;6875113;28;20212;-89
2021/12/22 11:03:52;;;;;;;27.73;18.23;;;;;;;5.16;47.28;99326.25;6853501;28;20232;-90
2021/12/22 11:07:23;;;;;;;26.13;17.97;;;;;;;6.26;46.08;99510.75;6868288;28;20236;-89
2021/12/22 11:18:15;;;;;;;21.80;16.63;;;;;;;6.46;45.74;99488.09;6873504;28;20652;-90
2021/12/22 11:22:09;;;;;;;22.20;17.70;;;;;;;6.10;47.97;99520.56;6874459;28;20206;-90
2021/12/22 11:25:44;;;;;;;24.47;17.23;;;;;;;7.14;46.38;99569.97;6874126;28;20236;-90
2021/12/22 11:33:25;;;;;;;24.13;17.17;;;;;;;6.81;46.40;99545.94;6874158;28;20572;-90
2021/12/22 11:41:20;;;;;;;22.73;17.33;;;;;;;6.63;46.80;99554.13;6842950;28;20575;-90
2021/12/22 11:45:16;;;;;;;27.27;16.97;;;;;;;5.29;46.92;99334.69;6867852;28;20213;-89
2021/12/22 11:48:49;;;;;;;17.87;14.07;;;;;;;5.61;46.13;99399.03;6873859;28;20567;-89
2021/12/22 11:52:51;;;;;;;21.77;16.10;;;;;;;6.84;44.93;99439.25;6859417;28;20213;-89
2021/12/22 11:56:50;;;;;;;21.00;15.37;;;;;;;5.74;45.49;99312.97;6848412;28;20268;-88
2021/12/22 12:00:51;;;;;;;19.53;14.47;;;;;;;6.16;43.49;99277.16;6846674;28;20218;-88
2021/12/22 12:04:20;;;;;;;20.43;15.23;;;;;;;6.96;44.40;99341.41;6837677;28;20225;-87
2021/12/22 12:07:44;;;;;;;23.23;15.97;;;;;;;7.53;43.71;99447.63;6846314;28;20257;-88
2021/12/22 12:11:12;;;;;;;21.83;15.60;;;;;;;6.91;43.71;99310.78;6846164;28;20650;-87
2021/12/22 12:15:03;;;;;;;20.17;15.63;;;;;;;7.87;43.88;99472.38;6846205;28;20294;-87
2021/12/22 12:22:53;;;;;;;21.70;14.93;;;;;;;7.61;42.82;99364.41;6846287;29;20219;-88
2021/12/22 12:30:45;;;;;;;20.87;15.80;;;;;;;6.72;44.15;99348.66;6845485;28;20683;-88
2021/12/22 12:38:36;;;;;;;18.70;14.40;;;;;;;5.90;44.61;99270.25;6830154;28;20288;-89
2021/12/22 12:42:12;;;;;;;18.87;14.67;;;;;;;7.69;43.05;99366.22;6862577;28;20565;-88
2021/12/22 12:45:49;;;;;;;16.37;12.43;;;;;;;8.30;41.07;99471.09;6874533;28;20253;-88
2021/12/22 12:49:40;;;;;;;17.50;13.37;;;;;;;6.36;45.42;99462.44;6870673;28;20248;-86
2021/12/22 12:53:07;;;;;;;17.87;14.43;;;;;;;6.60;44.04;99325.88;6850359;28;20634;-87
2021/12/22 12:56:32;;;;;;;17.57;13.03;;;;;;;6.12;43.21;99299.03;6874691;28;20579;-87
2021/12/22 13:00:05;;;;;;;15.30;12.17;;;;;;;5.42;47.21;99305.66;6871515;28;20202;-86
2021/12/22 13:03:30;;;;;;;17.97;12.10;;;;;;;6.64;44.08;99319.16;6855065;28;20207;-87
2021/12/22 13:06:54;;;;;;;17.47;12.97;;;;;;;7.25;43.60;99285.38;6871387;28;20240;-86
2021/12/22 13:10:35;;;;;;;16.83;11.87;;;;;;;7.02;42.72;99465.94;6874230;28;20232;-87
2021/12/22 13:17:44;;;;;;;17.57;11.70;;;;;;;6.25;44.20;99468.09;6875343;28;20186;-87
2021/12/22 13:21:08;;;;;;;15.53;11.90;;;;;;;5.29;43.56;99321.31;6876203;28;20193;-86
2021/12/22 13:24:33;;;;;;;14.80;11.60;;;;;;;5.39;43.84;99337.25;6875730;28;20211;-86
2021/12/22 13:27:57;;;;;;;17.60;12.70;;;;;;;5.66;44.22;99418.09;6876354;28;20229;-86
2021/12/22 13:31:21;;;;;;;16.43;12.97;;;;;;;4.67;45.15;99289.53;6876177;28;20209;-86
2021/12/22 13:34:44;;;;;;;16.07;11.83;;;;;;;5.56;45.30;99443.31;6875477;28;20216;-87
2021/12/22 13:38:13;;;;;;;19.73;12.93;;;;;;;5.51;45.26;99408.16;6875263;28;20209;-86
2021/12/22 13:41:37;;;;;;;22.40;13.37;;;;;;;4.33;44.74;99208.53;6874636;28;20726;-87
2021/12/22 13:45:00;;;;;;;21.53;13.83;;;;;;;5.40;45.37;99373.66;6862193;28;20213;-87
2021/12/22 13:48:23;;;;;;;19.67;13.53;;;;;;;5.16;46.31;99421.63;6863956;28;20675;-87
2021/12/22 13:51:51;;;;;;;19.97;13.10;;;;;;;4.60;46.50;99311.69;6854518;28;20202;-87
2021/12/22 13:55:15;;;;;;;18.13;11.73;;;;;;;5.27;46.21;99457.00;6868796;28;20205;-87
2021/12/22 13:58:40;;;;;;;18.13;12.03;;;;;;;4.62;46.61;99342.59;6876134;28;20220;-87
2021/12/22 14:02:06;;;;;;;19.57;12.17;;;;;;;5.32;46.91;99460.00;6861116;28;20213;-87
2021/12/22 14:05:28;;;;;;;21.07;13.63;;;;;;;4.64;45.68;99300.53;6875059;28;20299;-87
2021/12/22 14:09:07;;;;;;;19.73;12.97;;;;;;;5.37;44.99;99388.19;6873753;28;20213;-87
2021/12/22 14:12:33;;;;;;;16.63;11.70;;;;;;;4.58;45.31;99286.97;6865424;28;20200;-86
2021/12/22 14:15:56;;;;;;;18.03;12.87;;;;;;;3.81;45.82;99205.94;6875349;28;20225;-86
2021/12/22 14:19:34;;;;;;;17.03;11.83;;;;;;;4.06;45.47;99262.03;6874102;28;20288;-87
2021/12/22 14:23:01;;;;;;;16.43;12.03;;;;;;;4.99;45.10;99369.91;6792951;29;20203;-86
2021/12/22 14:26:28;;;;;;;18.03;12.67;;;;;;;5.29;44.92;99396.16;6777550;29;20235;-86
2021/12/22 14:29:54;;;;;;;19.03;13.33;;;;;;;6.14;44.23;99441.63;6776887;29;20196;-87
2021/12/22 14:33:18;;;;;;;18.40;12.90;;;;;;;5.97;43.94;99400.56;6771322;29;20219;-88
2021/12/22 14:36:45;;;;;;;17.43;12.50;;;;;;;6.32;43.70;99362.00;6780089;29;20212;-87
2021/12/22 14:40:16;;;;;;;19.47;12.67;;;;;;;5.71;44.92;99437.19;6754157;29;20210;-87
2021/12/22 14:43:41;;;;;;;18.97;13.20;;;;;;;4.70;44.24;99217.13;6791765;29;20240;-86
2021/12/22 14:47:19;;;;;;;16.07;11.53;;;;;;;6.61;43.44;99430.19;6769534;29;20228;-87
2021/12/22 14:50:54;;;;;;;18.27;12.60;;;;;;;6.05;43.98;99328.31;6777208;29;20214;-86
2021/12/22 14:54:20;;;;;;;17.90;13.03;;;;;;;6.03;43.43;99267.94;6775153;29;20249;-86
2021/12/22 14:57:42;;;;;;;19.87;14.03;;;;;;;6.72;43.33;99381.63;6783927;29;20222;-86
2021/12/22 15:01:06;;;;;;;22.43;14.00;;;;;;;6.06;43.71;99310.41;6863106;28;20209;-86
2021/12/22 15:04:29;;;;;;;23.07;14.60;;;;;;;5.85;44.22;99285.97;6859951;28;20291;-86
2021/12/22 15:07:51;;;;;;;21.73;14.43;;;;;;;6.33;44.45;99387.78;6872678;28;20238;-86
2021/12/22 15:11:13;;;;;;;21.60;14.57;;;;;;;5.66;45.35;99319.13;6874123;28;20208;-86
2021/12/22 15:14:35;;;;;;;24.20;16.20;;;;;;;4.62;45.90;99205.56;6873134;28;20225;-86
2021/12/22 15:17:57;;;;;;;23.10;16.00;;;;;;;5.13;46.20;99277.66;6856288;28;20498;-86
2021/12/22 15:21:24;;;;;;;28.10;17.10;;;;;;;5.48;45.85;99353.16;6869898;28;20564;-86
2021/12/22 15:24:49;;;;;;;24.30;16.83;;;;;;;5.08;45.75;99298.66;6856662;28;20212;-86
2021/12/22 15:28:15;;;;;;;22.30;15.27;;;;;;;5.62;45.72;99383.81;6863300;28;20225;-86
2021/12/22 15:31:58;;;;;;;22.90;16.57;;;;;;;5.06;45.61;99279.25;6872869;28;20212;-86
2021/12/22 15:35:21;;;;;;;24.73;16.23;;;;;;;5.96;46.00;99420.28;6860428;28;20209;-86
2021/12/22 15:38:49;;;;;;;25.00;16.00;;;;;;;5.12;45.55;99284.81;6858214;28;20205;-86
2021/12/22 15:42:11;;;;;;;26.93;16.37;;;;;;;4.68;45.55;99229.81;6871380;28;20204;-86
2021/12/22 15:45:34;;;;;;;22.53;16.67;;;;;;;4.81;46.45;99270.28;6865157;28;20205;-86
2021/12/22 15:49:02;;;;;;;29.20;17.03;;;;;;;4.49;46.80;99266.56;6854130;28;20201;-86
2021/12/22 15:52:24;;;;;;;28.80;18.30;;;;;;;5.16;47.34;99421.63;6864205;28;20212;-86
2021/12/22 15:55:48;;;;;;;26.60;18.30;;;;;;;4.40;47.53;99304.84;6863847;28;20328;-86
2021/12/22 15:59:14;;;;;;;26.00;17.87;;;;;;;4.75;47.50;99348.38;6851185;28;20209;-86
2021/12/22 16:02:38;;;;;;;24.23;17.47;;;;;;;4.88;47.13;99348.78;6860888;28;20287;-86
2021/12/22 16:06:12;;;;;;;28.77;18.83;;;;;;;4.42;47.17;99271.66;6861262;28;20350;-86
2021/12/22 16:09:33;;;;;;;30.93;19.23;;;;;;;5.04;47.51;99441.59;6856152;28;20197;-86
2021/12/22 16:12:57;;;;;;;37.67;22.50;;;;;;;3.96;49.14;99337.78;6846802;28;20202;-87
2021/12/22 16:16:19;;;;;;;28.77;19.17;;;;;;;3.56;50.66;99383.50;6853945;28;20222;-86
2021/12/22 16:19:44;;;;;;;29.07;19.07;;;;;;;3.23;49.84;99237.50;6858398;28;20295;-86
2021/12/22 16:23:06;;;;;;;27.17;18.80;;;;;;;3.91;50.22;99380.94;6859633;28;20205;-86
2021/12/22 16:26:29;;;;;;;32.50;20.33;;;;;;;3.56;49.19;99276.88;6871607;28;20235;-86
2021/12/22 16:29:53;;;;;;;29.20;19.63;;;;;;;4.05;49.32;99369.72;6857034;28;20213;-85
2021/12/22 16:33:19;;;;;;;28.93;19.90;;;;;;;4.19;49.41;99387.06;6863289;28;20695;-86
2021/12/22 16:36:45;;;;;;;32.33;20.30;;;;;;;4.35;48.94;99404.06;6546000;28;2042951;-85
2021/12/22 16:40:14;;;;;;;28.47;19.03;;;;;;;3.58;50.11;99349.50;6838433;29;20553;-86
2021/12/22 16:43:46;;;;;;;31.53;19.67;;;;;;;2.58;51.93;99317.47;6844136;28;20216;-86
2021/12/22 16:47:09;;;;;;;32.17;20.70;;;;;;;2.91;52.49;99356.94;6844585;29;20209;-86
2021/12/22 16:50:31;;;;;;;32.37;20.20;;;;;;;2.97;53.32;99462.03;6831663;28;20206;-86
2021/12/22 16:53:56;;;;;;;33.17;21.07;;;;;;;3.15;52.61;99417.69;6833083;28;20228;-86
2021/12/22 16:57:22;;;;;;;34.97;20.07;;;;;;;3.56;51.07;99353.31;6827570;28;20209;-86
2021/12/22 17:00:45;;;;;;;34.30;20.97;;;;;;;3.66;51.15;99399.44;6836754;28;20628;-86
2021/12/22 17:04:10;;;;;;;30.23;20.23;;;;;;;4.39;49.55;99437.50;6844133;28;20209;-86
2021/12/22 17:07:32;;;;;;;35.43;20.30;;;;;;;3.30;49.77;99259.88;6844812;28;20228;-86
2021/12/22 17:10:55;;;;;;;28.90;18.57;;;;;;;3.42;49.16;99277.34;6839394;28;20261;-85
2021/12/22 17:14:17;;;;;;;28.43;18.60;;;;;;;3.75;49.42;99356.72;6825909;28;20311;-87
2021/12/22 17:17:40;;;;;;;30.50;20.13;;;;;;;2.59;50.46;99273.06;6827364;29;20216;-87
2021/12/22 17:21:08;;;;;;;33.67;20.27;;;;;;;1.89;51.88;99211.44;6844488;28;20653;-87
2021/12/22 17:24:35;;;;;;;35.23;22.07;;;;;;;2.73;53.15;99421.69;6844438;28;20185;-86
2021/12/22 17:28:03;;;;;;;28.63;19.00;;;;;;;1.59;54.34;99275.38;6825142;29;20284;-87
2021/12/22 17:31:30;;;;;;;31.13;21.27;;;;;;;2.25;53.09;99319.75;6821886;29;20233;-86
2021/12/22 17:34:53;;;;;;;31.50;21.43;;;;;;;3.13;52.13;99419.69;6838423;29;20254;-87
2021/12/22 17:38:20;;;;;;;34.13;21.97;;;;;;;0.65;54.14;99157.31;6839433;29;20289;-88
2021/12/22 17:41:45;;;;;;;37.20;21.33;;;;;;;0.65;54.09;99168.75;6831139;29;20616;-87
2021/12/22 17:45:08;;;;;;;33.13;21.07;;;;;;;2.14;54.77;99357.94;6835604;29;20206;-87
2021/12/22 17:48:30;;;;;;;36.30;21.93;;;;;;;1.83;53.67;99249.22;6846407;29;20292;-86
2021/12/22 17:51:55;;;;;;;34.77;20.27;;;;;;;2.85;52.74;99368.16;6844696;28;20228;-88
2021/12/22 17:55:33;;;;;;;33.67;21.37;;;;;;;2.77;53.22;99439.06;6842631;28;20639;-87
2021/12/22 17:58:58;;;;;;;34.60;22.53;;;;;;;3.00;52.15;99409.31;6822705;29;20214;-88
2021/12/22 18:02:22;;;;;;;32.50;21.80;;;;;;;2.54;53.11;99450.97;6825839;29;20214;-87
2021/12/22 18:05:55;;;;;;;34.13;21.57;;;;;;;3.25;51.98;99419.34;6831235;29;20213;-88
2021/12/22 18:09:19;;;;;;;34.60;21.97;;;;;;;2.51;51.37;99265.81;6838418;29;20232;-87
2021/12/22 18:12:44;;;;;;;35.50;23.03;;;;;;;3.06;51.41;99354.63;6846292;29;20206;-88
2021/12/22 18:16:09;;;;;;;40.93;23.47;;;;;;;1.01;53.45;99181.44;6846866;28;20233;-88
2021/12/22 18:19:37;;;;;;;38.60;23.77;;;;;;;1.68;52.39;99206.28;6848917;28;20206;-88
2021/12/22 18:26:42;;;;;;;34.60;21.80;;;;;;;2.20;51.47;99232.38;6842608;28;20372;-88
2021/12/22 18:30:11;;;;;;;34.40;20.93;;;;;;;2.41;51.27;99264.97;6840785;28;20198;-88
2021/12/22 18:33:39;;;;;;;36.90;21.40;;;;;;;2.08;51.55;99262.75;6844605;29;20237;-88
2021/12/22 18:37:15;;;;;;;38.17;22.67;;;;;;;1.32;52.78;99166.25;6841456;28;20214;-88
2021/12/22 18:40:48;;;;;;;37.13;23.00;;;;;;;2.27;52.07;99321.28;6827438;29;20680;-88
2021/12/22 18:44:15;;;;;;;37.67;21.83;;;;;;;1.92;52.35;99269.63;6831596;29;20216;-88
2021/12/22 18:47:49;;;;;;;36.10;22.07;;;;;;;2.00;51.76;99240.50;6847052;28;20225;-88
2021/12/22 18:51:23;;;;;;;39.13;23.20;;;;;;;1.53;53.82;99287.38;6847685;28;20209;-88
2021/12/22 18:54:45;;;;;;;39.97;24.50;;;;;;;1.33;54.90;99322.84;6846150;28;20303;-88
2021/12/22 18:58:10;;;;;;;38.20;23.20;;;;;;;0.42;55.74;99139.94;6846840;28;20209;-88
2021/12/22 19:01:41;;;;;;;36.60;23.63;;;;;;;1.53;55.49;99324.56;6847542;28;20225;-88
2021/12/22 19:05:25;;;;;;;54.57;29.50;;;;;;;1.45;55.23;99281.91;6847835;28;20209;-88
2021/12/22 19:08:48;;;;;;;35.70;22.30;;;;;;;0.36;56.22;99180.25;6846775;28;20691;-88
2021/12/22 19:12:11;;;;;;;37.83;23.47;;;;;;;1.72;56.00;99388.38;6845413;29;20617;-88
2021/12/22 19:15:36;;;;;;;34.37;21.20;;;;;;;0.47;55.52;99114.66;6846045;29;20236;-88
2021/12/22 19:19:01;;;;;;;32.63;21.00;;;;;;;1.23;55.06;99220.19;6846931;28;20209;-88
2021/12/22 19:22:27;;;;;;;36.57;23.27;;;;;;;1.01;54.27;99220.44;6845856;28;20576;-88
2021/12/22 19:25:52;;;;;;;40.00;22.70;;;;;;;1.42;54.64;99291.97;6838210;29;20202;-88
2021/12/22 19:29:19;;;;;;;35.87;21.50;;;;;;;1.78;54.87;99289.50;6839289;28;20228;-88
2021/12/22 19:32:42;;;;;;;39.37;23.07;;;;;;;1.14;54.58;99199.78;6837553;29;20229;-88
2021/12/22 19:36:18;;;;;;;40.07;22.53;;;;;;;0.77;55.61;99194.22;6821510;29;20202;-88
2021/12/22 19:39:43;;;;;;;38.17;23.63;;;;;;;2.49;54.51;99336.13;6823846;29;20227;-87
2021/12/22 19:43:08;;;;;;;38.07;22.50;;;;;;;2.78;52.86;99351.06;6839057;29;20218;-88
2021/12/22 19:46:33;;;;;;;37.00;23.37;;;;;;;2.26;52.54;99244.28;6845130;28;20221;-88
2021/12/22 19:49:57;;;;;;;38.63;24.27;;;;;;;2.51;52.19;99251.66;6840578;28;20198;-88
2021/12/22 19:53:24;;;;;;;35.33;22.77;;;;;;;1.61;51.73;99098.84;6824576;29;20206;-87
2021/12/22 19:56:50;;;;;;;38.07;23.57;;;;;;;1.85;53.35;99266.72;6827918;28;20217;-88
2021/12/22 20:00:16;;;;;;;37.80;23.07;;;;;;;1.20;53.49;99109.75;6821345;29;20208;-87
2021/12/22 20:03:44;;;;;;;38.80;23.07;;;;;;;1.95;53.14;99294.13;6841833;29;20555;-88
2021/12/22 20:07:12;;;;;;;38.70;23.83;;;;;;;1.37;53.18;99137.47;6838899;28;20229;-88
2021/12/22 20:10:37;;;;;;;60.43;36.57;;;;;;;1.64;51.68;99116.31;6833771;28;20216;-87
2021/12/22 20:14:09;;;;;;;38.43;22.93;;;;;;;2.50;52.15;99309.38;6841212;28;20210;-88
2021/12/22 20:17:33;;;;;;;37.80;23.67;;;;;;;0.47;54.49;99087.28;6837407;29;20198;-88
2021/12/22 20:20:58;;;;;;;45.57;25.57;;;;;;;1.21;55.18;99273.44;6829397;29;20217;-87
2021/12/22 20:24:26;;;;;;;36.90;22.53;;;;;;;1.01;56.29;99236.34;6829595;29;20205;-87
2021/12/22 20:28:02;;;;;;;42.50;23.67;;;;;;;1.28;54.49;99147.09;6837112;28;20228;-88
2021/12/22 20:31:38;;;;;;;37.50;22.47;;;;;;;1.92;53.37;99237.72;6832778;29;20209;-87
2021/12/22 20:35:03;;;;;;;34.10;22.57;;;;;;;1.49;52.29;99146.97;6833022;28;20791;-88
2021/12/22 20:38:36;;;;;;;37.23;22.57;;;;;;;2.17;51.34;99258.41;6836134;29;20194;-88
2021/12/22 20:42:00;;;;;;;40.50;23.50;;;;;;;1.67;51.87;99214.38;6829399;29;20214;-87
2021/12/22 20:45:24;;;;;;;38.90;23.13;;;;;;;1.59;51.88;99191.16;6823887;29;20554;-88
2021/12/22 20:48:49;;;;;;;32.73;23.00;;;;;;;2.20;51.88;99304.19;6844361;28;20230;-88
2021/12/22 20:52:12;;;;;;;39.43;24.97;;;;;;;2.12;51.94;99288.09;6824258;28;20207;-88
2021/12/22 20:55:34;;;;;;;38.70;24.70;;;;;;;1.72;52.51;99226.25;6839666;28;20376;-88
2021/12/22 20:58:56;;;;;;;45.73;27.07;;;;;;;1.28;54.07;99240.06;6819743;29;20207;-87
2021/12/22 21:02:20;;;;;;;39.13;23.20;;;;;;;1.85;54.43;99282.66;6849809;28;20221;-87
2021/12/22 21:05:43;;;;;;;37.93;23.17;;;;;;;0.38;53.84;99014.72;6838805;28;20203;-88
2021/12/22 21:09:06;;;;;;;40.97;24.57;;;;;;;1.29;53.53;99231.13;6836148;29;20229;-88